createdAt,value
2023-05-20T00:02:16.368Z,14.53
2023-05-20T00:04:44.094Z,12.83
2023-05-20T00:07:11.360Z,13.87
2023-05-20T00:09:40.044Z,15.07
2023-05-20T00:12:07.320Z,13.50
2023-05-20T00:14:34.461Z,15.27
2023-05-20T00:17:01.653Z,17.27
2023-05-20T00:19:29.104Z,15.17
2023-05-20T00:21:57.853Z,16.30
2023-05-20T00:24:25.556Z,17.77
2023-05-20T00:26:52.676Z,15.77
2023-05-20T00:29:20.675Z,15.00
2023-05-20T00:31:47.971Z,18.03
2023-05-20T00:34:15.118Z,13.47
2023-05-20T00:36:43.047Z,13.57
2023-05-20T00:39:10.197Z,15.50
2023-05-20T00:41:37.698Z,13.57
2023-05-20T00:44:04.798Z,14.97
2023-05-20T00:46:32.304Z,13.73
2023-05-20T00:48:59.927Z,16.80
2023-05-20T00:51:27.047Z,15.33
2023-05-20T00:53:54.422Z,13.97
2023-05-20T00:56:22.187Z,16.00
2023-05-20T00:58:49.879Z,15.43
2023-05-20T01:01:17.093Z,14.37
2023-05-20T01:03:44.644Z,16.03
2023-05-20T01:06:11.808Z,15.93
2023-05-20T01:08:38.896Z,14.13
2023-05-20T01:11:09.924Z,13.47
2023-05-20T01:13:43.895Z,15.17
2023-05-20T01:16:12.289Z,14.73
2023-05-20T01:18:40.895Z,15.23
2023-05-20T01:21:09.783Z,16.37
2023-05-20T01:26:27.409Z,14.10
2023-05-20T01:28:54.795Z,14.40
2023-05-20T01:31:24.513Z,13.47
2023-05-20T01:33:55.898Z,16.27
2023-05-20T01:36:23.425Z,13.40
2023-05-20T01:38:51.219Z,14.37
2023-05-20T01:41:18.590Z,15.20
2023-05-20T01:43:45.926Z,15.20
2023-05-20T01:46:13.182Z,13.80
2023-05-20T01:48:40.356Z,14.80
2023-05-20T01:51:07.483Z,14.13
2023-05-20T01:53:34.562Z,15.67
2023-05-20T01:56:01.678Z,15.93
2023-05-20T01:58:28.856Z,14.37
2023-05-20T02:00:56.027Z,13.07
2023-05-20T02:03:23.203Z,17.10
2023-05-20T02:05:50.694Z,12.97
2023-05-20T02:08:17.815Z,13.97
2023-05-20T02:10:44.943Z,15.10
2023-05-20T02:13:12.030Z,15.10
2023-05-20T02:15:41.942Z,14.17
2023-05-20T02:18:09.459Z,13.03
2023-05-20T02:20:37.265Z,13.03
2023-05-20T02:23:08.645Z,15.83
2023-05-20T02:25:36.373Z,13.73
2023-05-20T02:28:05.838Z,14.03
2023-05-20T02:30:33.270Z,13.83
2023-05-20T02:33:00.451Z,16.03
2023-05-20T02:35:27.595Z,15.70
2023-05-20T02:37:54.767Z,14.10
2023-05-20T02:40:21.902Z,14.03
2023-05-20T02:42:49.056Z,14.27
2023-05-20T02:45:16.560Z,15.13
2023-05-20T02:47:43.723Z,15.27
2023-05-20T02:50:11.241Z,14.60
2023-05-20T02:52:39.860Z,14.07
2023-05-20T02:55:07.683Z,15.80
2023-05-20T02:57:38.068Z,15.23
2023-05-20T03:00:07.138Z,13.33
2023-05-20T03:02:34.655Z,14.13
2023-05-20T03:05:02.555Z,15.70
2023-05-20T03:07:29.691Z,13.47
2023-05-20T03:09:58.769Z,15.00
2023-05-20T03:12:26.355Z,13.77
2023-05-20T03:14:55.337Z,14.90
2023-05-20T03:17:22.967Z,14.40
2023-05-20T03:19:50.177Z,14.13
2023-05-20T03:22:17.288Z,14.70
2023-05-20T03:24:46.314Z,14.33
2023-05-20T03:27:13.384Z,14.83
2023-05-20T03:29:40.849Z,14.87
2023-05-20T03:32:10.164Z,12.63
2023-05-20T03:34:38.424Z,14.97
2023-05-20T03:37:05.977Z,19.73
2023-05-20T03:39:33.053Z,14.37
2023-05-20T03:42:00.380Z,15.30
2023-05-20T03:44:27.560Z,14.70
2023-05-20T03:46:54.680Z,13.00
2023-05-20T03:49:21.851Z,14.60
2023-05-20T03:51:49.016Z,15.30
2023-05-20T03:54:17.299Z,15.03
2023-05-20T03:56:46.845Z,14.17
2023-05-20T03:59:13.974Z,13.83
2023-05-20T04:01:41.131Z,14.83
2023-05-20T04:04:08.343Z,14.93
2023-05-20T04:06:36.567Z,13.67
2023-05-20T04:09:03.982Z,15.43
2023-05-20T04:11:31.077Z,15.43
2023-05-20T04:14:01.536Z,13.60
2023-05-20T04:16:29.690Z,17.87
2023-05-20T04:18:59.718Z,15.10
2023-05-20T04:21:27.547Z,16.73
2023-05-20T04:23:54.641Z,14.27
2023-05-20T04:26:22.623Z,16.00
2023-05-20T04:28:49.887Z,21.50
2023-05-20T04:31:17.064Z,12.50
2023-05-20T04:33:44.488Z,18.03
2023-05-20T04:36:16.463Z,15.37
2023-05-20T04:38:44.605Z,16.80
2023-05-20T04:41:11.842Z,15.97
2023-05-20T04:43:40.501Z,16.10
2023-05-20T04:46:07.828Z,16.83
2023-05-20T04:48:36.156Z,16.07
2023-05-20T04:51:03.401Z,15.13
2023-05-20T04:53:30.665Z,15.43
2023-05-20T04:55:57.902Z,21.47
2023-05-20T04:58:25.430Z,16.50
2023-05-20T05:00:53.141Z,15.80
2023-05-20T05:03:20.556Z,18.90
2023-05-20T05:05:47.655Z,15.63
2023-05-20T05:08:14.770Z,18.87
2023-05-20T05:10:41.894Z,18.17
2023-05-20T05:13:09.302Z,21.37
2023-05-20T05:15:36.561Z,18.63
2023-05-20T05:18:04.347Z,18.07
2023-05-20T05:20:31.465Z,18.70
2023-05-20T05:22:58.582Z,18.70
2023-05-20T05:25:25.723Z,18.20
2023-05-20T05:27:53.434Z,19.73
2023-05-20T05:30:22.012Z,18.77
2023-05-20T05:32:49.175Z,17.73
2023-05-20T05:35:16.488Z,19.30
2023-05-20T05:37:43.578Z,19.87
2023-05-20T05:40:10.913Z,19.17
2023-05-20T05:42:38.039Z,23.70
2023-05-20T05:45:05.368Z,20.10
2023-05-20T05:47:32.838Z,19.00
2023-05-20T05:50:00.467Z,22.23
2023-05-20T05:52:27.897Z,21.83
2023-05-20T05:54:55.470Z,21.40
2023-05-20T05:57:23.021Z,22.07
2023-05-20T05:59:50.139Z,21.70
2023-05-20T06:02:17.481Z,21.80
2023-05-20T06:04:44.931Z,18.57
2023-05-20T06:07:12.160Z,20.30
2023-05-20T06:09:39.893Z,20.70
2023-05-20T06:12:07.509Z,23.17
2023-05-20T06:14:34.613Z,21.67
2023-05-20T06:17:02.414Z,22.80
2023-05-20T06:19:29.873Z,20.60
2023-05-20T06:21:58.645Z,22.47
2023-05-20T06:24:25.776Z,21.20
2023-05-20T06:26:53.196Z,17.70
2023-05-20T06:29:20.817Z,23.00
2023-05-20T06:31:47.943Z,20.27
2023-05-20T06:34:15.370Z,21.90
2023-05-20T06:36:42.491Z,20.80
2023-05-20T06:39:12.764Z,20.67
2023-05-20T06:41:40.729Z,26.40
2023-05-20T06:44:08.495Z,20.97
2023-05-20T06:46:35.810Z,21.20
2023-05-20T06:49:03.291Z,22.57
2023-05-20T06:51:30.739Z,26.63
2023-05-20T06:53:57.851Z,18.07
2023-05-20T06:56:25.284Z,21.03
2023-05-20T06:58:52.398Z,26.33
2023-05-20T07:01:19.664Z,20.97
2023-05-20T07:03:46.915Z,19.00
2023-05-20T07:06:14.030Z,24.27
2023-05-20T07:08:41.188Z,17.07
2023-05-20T07:11:08.339Z,21.03
2023-05-20T07:13:35.612Z,20.80
2023-05-20T07:16:02.741Z,21.77
2023-05-20T07:18:30.273Z,22.17
2023-05-20T07:20:57.689Z,22.57
2023-05-20T07:23:24.929Z,20.07
2023-05-20T07:25:52.104Z,21.60
2023-05-20T07:28:19.197Z,24.27
2023-05-20T07:30:50.005Z,21.70
2023-05-20T07:33:17.796Z,19.37
2023-05-20T07:35:45.457Z,20.30
2023-05-20T07:38:12.893Z,17.13
2023-05-20T07:40:43.262Z,20.47
2023-05-20T07:43:10.350Z,19.63
2023-05-20T07:45:37.943Z,18.83
2023-05-20T07:48:08.986Z,23.53
2023-05-20T07:50:36.235Z,15.73
2023-05-20T07:53:03.340Z,19.80
2023-05-20T07:55:31.657Z,19.30
2023-05-20T07:57:58.811Z,18.13
2023-05-20T08:00:25.947Z,16.00
2023-05-20T08:02:53.329Z,15.97
2023-05-20T08:05:20.617Z,16.97
2023-05-20T08:07:47.737Z,16.50
2023-05-20T08:10:15.218Z,14.47
2023-05-20T08:12:42.298Z,15.50
2023-05-20T08:15:09.546Z,18.37
2023-05-20T08:17:36.706Z,18.33
2023-05-20T08:20:04.423Z,14.47
2023-05-20T08:22:31.660Z,14.40
2023-05-20T08:24:58.744Z,14.20
2023-05-20T08:27:26.272Z,15.33
2023-05-20T08:29:53.378Z,13.17
2023-05-20T08:32:22.515Z,13.93
2023-05-20T08:34:49.624Z,13.57
2023-05-20T08:37:17.063Z,13.97
2023-05-20T08:39:46.527Z,15.00
2023-05-20T08:42:13.793Z,13.97
2023-05-20T08:44:41.856Z,12.90
2023-05-20T08:47:09.551Z,13.50
2023-05-20T08:49:36.655Z,13.65
2023-05-20T08:52:03.814Z,13.75
2023-05-20T08:54:38.457Z,14.80
2023-05-20T08:57:05.979Z,13.20
2023-05-20T08:59:33.722Z,13.17
2023-05-20T09:02:00.922Z,14.37
2023-05-20T09:04:28.039Z,12.60
2023-05-20T09:06:55.652Z,15.13
2023-05-20T09:09:23.487Z,13.40
2023-05-20T09:11:50.603Z,14.03
2023-05-20T09:14:17.751Z,13.37
2023-05-20T09:16:44.979Z,14.03
2023-05-20T09:19:12.251Z,12.90
2023-05-20T09:21:41.820Z,15.10
2023-05-20T09:24:09.014Z,13.70
2023-05-20T09:26:36.933Z,14.93
2023-05-20T09:29:05.032Z,13.43
2023-05-20T09:31:35.614Z,18.67
2023-05-20T09:34:02.928Z,14.77
2023-05-20T09:36:31.748Z,15.63
2023-05-20T09:39:05.504Z,13.70
2023-05-20T09:41:35.440Z,13.70
2023-05-20T09:44:04.034Z,14.20
2023-05-20T09:46:31.706Z,13.90
2023-05-20T09:48:59.798Z,14.47
2023-05-20T09:51:27.263Z,13.43
2023-05-20T09:53:54.533Z,16.30
2023-05-20T09:56:22.488Z,16.40
2023-05-20T09:58:50.824Z,15.67
2023-05-20T10:01:18.354Z,13.30
2023-05-20T10:03:45.996Z,16.30
2023-05-20T10:06:22.402Z,14.73
2023-05-20T10:08:49.502Z,16.20
2023-05-20T10:11:35.612Z,18.27
2023-05-20T10:14:08.795Z,14.47
2023-05-20T10:16:54.520Z,14.83
2023-05-20T10:19:31.180Z,13.13
2023-05-20T10:22:02.815Z,13.03
2023-05-20T10:24:33.766Z,14.53
2023-05-20T10:27:03.061Z,14.43
2023-05-20T10:29:30.466Z,13.77
2023-05-20T10:31:57.641Z,14.47
2023-05-20T10:34:24.919Z,15.47
2023-05-20T10:36:54.832Z,16.07
2023-05-20T10:39:29.274Z,13.13
2023-05-20T10:42:09.298Z,14.37
2023-05-20T10:44:46.537Z,15.70
2023-05-20T10:49:47.508Z,12.33
2023-05-20T10:52:15.731Z,17.33
2023-05-20T10:54:55.528Z,14.20
2023-05-20T10:57:23.409Z,14.33
2023-05-20T10:59:51.354Z,13.53
2023-05-20T11:02:19.286Z,11.97
2023-05-20T11:04:47.218Z,15.80
2023-05-20T11:07:14.311Z,13.77
2023-05-20T11:09:50.948Z,13.07
2023-05-20T11:12:18.127Z,12.50
2023-05-20T11:14:45.263Z,11.63
2023-05-20T11:17:12.749Z,13.80
2023-05-20T11:19:39.873Z,13.67
2023-05-20T11:22:08.374Z,13.10
2023-05-20T11:24:35.741Z,12.43
2023-05-20T11:27:03.554Z,11.23
2023-05-20T11:29:32.176Z,12.87
2023-05-20T11:32:00.497Z,13.70
2023-05-20T11:34:33.701Z,12.03
2023-05-20T11:37:01.126Z,11.70
2023-05-20T11:39:30.631Z,12.03
2023-05-20T11:41:58.960Z,12.60
2023-05-20T11:44:26.354Z,15.50
2023-05-20T11:46:59.836Z,12.17
2023-05-20T11:49:27.066Z,12.37
2023-05-20T11:51:54.178Z,12.03
2023-05-20T11:54:23.996Z,11.80
2023-05-20T11:56:51.528Z,11.33
2023-05-20T11:59:18.641Z,15.13
2023-05-20T12:01:45.861Z,12.97
2023-05-20T12:04:14.674Z,11.07
2023-05-20T12:06:42.876Z,13.00
2023-05-20T12:09:10.421Z,12.43
2023-05-20T12:11:40.061Z,11.73
2023-05-20T12:14:07.854Z,11.70
2023-05-20T12:16:35.946Z,11.57
2023-05-20T12:19:03.782Z,12.63
2023-05-20T12:21:31.480Z,13.70
2023-05-20T12:23:59.781Z,12.87
2023-05-20T12:26:30.293Z,10.77
2023-05-20T12:28:57.771Z,12.20
2023-05-20T12:31:26.092Z,11.57
2023-05-20T12:33:53.690Z,11.90
2023-05-20T12:36:21.026Z,13.43
2023-05-20T12:38:48.144Z,12.40
2023-05-20T12:41:15.450Z,11.17
2023-05-20T12:43:42.790Z,12.30
2023-05-20T12:46:09.917Z,13.07
2023-05-20T12:48:37.460Z,13.67
2023-05-20T12:51:04.739Z,13.77
2023-05-20T12:53:31.900Z,12.33
2023-05-20T12:55:59.077Z,13.40
2023-05-20T12:58:26.146Z,11.80
2023-05-20T13:00:53.247Z,12.30
2023-05-20T13:03:20.662Z,14.57
2023-05-20T13:05:47.842Z,11.83
2023-05-20T13:08:15.093Z,11.00
2023-05-20T13:13:27.385Z,11.17
2023-05-20T13:15:55.450Z,13.47
2023-05-20T13:18:22.628Z,11.83
2023-05-20T13:20:49.833Z,11.10
2023-05-20T13:23:17.347Z,11.60
2023-05-20T13:25:44.464Z,12.80
2023-05-20T13:28:13.343Z,11.30
2023-05-20T13:30:40.553Z,12.13
2023-05-20T13:33:07.772Z,12.30
2023-05-20T13:35:35.256Z,13.63
2023-05-20T13:38:02.320Z,11.03
2023-05-20T13:40:29.424Z,11.33
2023-05-20T13:42:57.150Z,12.67
2023-05-20T13:45:25.582Z,12.40
2023-05-20T13:47:52.769Z,12.03
2023-05-20T13:50:20.852Z,10.80
2023-05-20T13:52:48.097Z,12.47
2023-05-20T13:55:16.054Z,11.83
2023-05-20T13:57:43.688Z,11.57
2023-05-20T14:00:11.061Z,11.00
2023-05-20T14:02:38.243Z,14.63
2023-05-20T14:05:07.510Z,12.47
2023-05-20T14:07:34.600Z,10.60
2023-05-20T14:10:01.696Z,11.37
2023-05-20T14:12:29.197Z,10.67
2023-05-20T14:14:56.399Z,11.63
2023-05-20T14:17:23.500Z,11.83
2023-05-20T14:19:50.638Z,12.40
2023-05-20T14:22:17.934Z,12.53
2023-05-20T14:24:45.040Z,13.03
2023-05-20T14:27:14.051Z,11.43
2023-05-20T14:29:41.200Z,11.73
2023-05-20T14:32:08.975Z,13.97
2023-05-20T14:34:36.106Z,13.30
2023-05-20T14:37:09.647Z,13.57
2023-05-20T14:39:37.313Z,14.77
2023-05-20T14:42:04.642Z,13.33
2023-05-20T14:44:31.817Z,12.67
2023-05-20T14:46:59.008Z,12.47
2023-05-20T14:49:26.221Z,13.00
2023-05-20T14:51:53.333Z,13.10
2023-05-20T14:54:25.224Z,12.97
2023-05-20T14:56:52.656Z,11.60
2023-05-20T14:59:19.901Z,15.00
2023-05-20T15:01:47.026Z,12.70
2023-05-20T15:04:14.145Z,13.43
2023-05-20T15:06:41.580Z,13.10
2023-05-20T15:09:09.038Z,13.57
2023-05-20T15:11:36.279Z,13.30
2023-05-20T15:14:03.450Z,14.57
2023-05-20T15:16:30.726Z,12.60
2023-05-20T15:18:57.925Z,13.73
2023-05-20T15:21:25.149Z,12.93
2023-05-20T15:23:52.264Z,13.03
2023-05-20T15:26:19.390Z,12.33
2023-05-20T15:28:46.463Z,12.97
2023-05-20T15:31:13.876Z,11.50
2023-05-20T15:33:41.021Z,12.70
2023-05-20T15:36:08.421Z,14.70
2023-05-20T15:38:35.858Z,13.57
2023-05-20T15:41:02.932Z,13.70
2023-05-20T15:43:30.019Z,12.90
2023-05-20T15:45:57.451Z,11.77
2023-05-20T15:48:24.631Z,12.23
2023-05-20T15:50:51.717Z,13.90
2023-05-20T15:53:18.872Z,12.13
2023-05-20T15:55:46.069Z,12.30
2023-05-20T15:58:13.163Z,14.80
2023-05-20T16:00:40.448Z,16.20
2023-05-20T16:03:08.288Z,12.17
2023-05-20T16:05:35.751Z,13.47
2023-05-20T16:08:03.457Z,14.47
2023-05-20T16:10:33.068Z,14.77
2023-05-20T16:13:01.288Z,13.00
2023-05-20T16:15:31.969Z,12.90
2023-05-20T16:17:59.104Z,12.40
2023-05-20T16:20:26.480Z,12.93
2023-05-20T16:22:53.911Z,15.33
2023-05-20T16:25:21.007Z,12.43
2023-05-20T16:27:48.364Z,13.00
2023-05-20T16:30:15.837Z,14.27
2023-05-20T16:32:43.030Z,13.40
2023-05-20T16:35:10.284Z,13.00
2023-05-20T16:37:37.398Z,13.40
2023-05-20T16:40:04.756Z,13.13
2023-05-20T16:42:31.836Z,13.83
2023-05-20T16:44:59.105Z,16.33
2023-05-20T16:47:26.400Z,13.33
2023-05-20T16:49:53.510Z,13.90
2023-05-20T16:52:21.221Z,14.73
2023-05-20T16:54:48.934Z,13.30
2023-05-20T16:57:16.315Z,15.30
2023-05-20T16:59:43.729Z,13.30
2023-05-20T17:02:10.860Z,12.27
2023-05-20T17:04:37.973Z,12.63
2023-05-20T17:07:09.970Z,11.27
2023-05-20T17:09:37.393Z,10.40
2023-05-20T17:12:04.980Z,12.70
2023-05-20T17:14:32.074Z,10.63
2023-05-20T17:16:59.305Z,12.67
2023-05-20T17:19:26.546Z,12.47
2023-05-20T17:21:53.885Z,9.90
2023-05-20T17:24:20.980Z,11.27
2023-05-20T17:26:48.100Z,12.07
2023-05-20T17:29:15.442Z,12.23
2023-05-20T17:31:42.585Z,12.80
2023-05-20T17:34:09.765Z,12.90
2023-05-20T17:36:37.031Z,10.87
2023-05-20T17:39:04.581Z,10.07
2023-05-20T17:41:31.708Z,10.83
2023-05-20T17:43:59.176Z,11.27
2023-05-20T17:46:26.631Z,12.63
2023-05-20T17:48:53.744Z,12.83
2023-05-20T17:51:21.302Z,12.03
2023-05-20T17:53:48.406Z,10.87
2023-05-20T17:56:15.676Z,13.57
2023-05-20T17:58:44.982Z,12.20
2023-05-20T18:01:12.165Z,12.13
2023-05-20T18:03:39.944Z,9.87
2023-05-20T18:06:07.519Z,15.17
2023-05-20T18:08:34.761Z,13.87
2023-05-20T18:11:01.894Z,10.40
2023-05-20T18:13:29.346Z,9.77
2023-05-20T18:15:56.488Z,11.50
2023-05-20T18:18:23.649Z,10.53
2023-05-20T18:20:51.218Z,11.50
2023-05-20T18:23:18.400Z,9.77
2023-05-20T18:25:45.606Z,10.07
2023-05-20T18:28:13.590Z,11.07
2023-05-20T18:30:40.778Z,12.07
2023-05-20T18:33:07.966Z,10.80
2023-05-20T18:35:35.484Z,10.70
2023-05-20T18:38:02.601Z,11.43
2023-05-20T18:40:29.765Z,9.53
2023-05-20T18:42:57.224Z,9.57
2023-05-20T18:45:24.924Z,10.33
2023-05-20T18:47:53.713Z,9.50
2023-05-20T18:50:21.084Z,10.07
2023-05-20T18:52:48.298Z,12.03
2023-05-20T18:55:15.467Z,10.43
2023-05-20T18:57:42.906Z,10.60
2023-05-20T19:00:12.086Z,11.40
2023-05-20T19:02:40.199Z,11.97
2023-05-20T19:05:11.427Z,10.27
2023-05-20T19:07:38.972Z,10.97
2023-05-20T19:10:06.710Z,10.40
2023-05-20T19:12:33.854Z,13.60
2023-05-20T19:15:01.396Z,10.80
2023-05-20T19:17:28.493Z,10.03
2023-05-20T19:19:56.139Z,10.37
2023-05-20T19:22:23.249Z,16.47
2023-05-20T19:24:50.580Z,11.27
2023-05-20T19:27:17.729Z,12.97
2023-05-20T19:29:44.930Z,11.93
2023-05-20T19:32:12.057Z,12.23
2023-05-20T19:34:40.494Z,11.77
2023-05-20T19:37:07.567Z,12.87
2023-05-20T19:39:34.714Z,11.90
2023-05-20T19:42:02.213Z,12.00
2023-05-20T19:44:29.394Z,11.80
2023-05-20T19:46:56.747Z,13.43
2023-05-20T19:49:24.168Z,13.23
2023-05-20T19:51:51.689Z,12.37
2023-05-20T19:54:18.777Z,13.53
2023-05-20T19:56:46.077Z,13.20
2023-05-20T19:59:13.437Z,13.40
2023-05-20T20:01:40.707Z,15.43
2023-05-20T20:04:07.977Z,12.23
2023-05-20T20:06:35.756Z,14.93
2023-05-20T20:09:02.858Z,13.30
2023-05-20T20:11:30.379Z,13.17
2023-05-20T20:13:58.549Z,14.07
2023-05-20T20:16:26.901Z,15.70
2023-05-20T20:18:54.413Z,13.10
2023-05-20T20:21:21.843Z,14.80
2023-05-20T20:23:48.936Z,14.97
2023-05-20T20:26:16.051Z,13.57
2023-05-20T20:28:43.165Z,13.57
2023-05-20T20:31:10.274Z,14.23
2023-05-20T20:33:37.721Z,13.30
2023-05-20T20:36:04.960Z,14.13
2023-05-20T20:38:32.278Z,13.80
2023-05-20T20:40:59.733Z,14.03
2023-05-20T20:43:28.738Z,12.77
2023-05-20T20:45:56.496Z,14.87
2023-05-20T20:48:27.550Z,16.50
2023-05-20T20:50:55.010Z,15.90
2023-05-20T20:53:22.282Z,16.63
2023-05-20T20:55:51.477Z,14.90
2023-05-20T20:58:18.885Z,16.43
2023-05-20T21:00:48.485Z,14.80
2023-05-20T21:03:15.812Z,14.57
2023-05-20T21:05:42.884Z,16.00
2023-05-20T21:08:10.428Z,25.30
2023-05-20T21:10:38.294Z,26.00
2023-05-20T21:13:05.503Z,20.00
2023-05-20T21:15:32.635Z,22.17
2023-05-20T21:17:59.835Z,19.30
2023-05-20T21:20:26.949Z,15.43
2023-05-20T21:22:54.086Z,15.43
2023-05-20T21:25:21.246Z,17.33
2023-05-20T21:27:48.403Z,14.23
2023-05-20T21:30:17.172Z,15.43
2023-05-20T21:32:44.412Z,15.63
2023-05-20T21:35:11.671Z,15.20
2023-05-20T21:37:38.814Z,16.40
2023-05-20T21:40:06.395Z,16.87
2023-05-20T21:42:33.545Z,14.80
2023-05-20T21:45:00.770Z,17.07
2023-05-20T21:47:28.261Z,15.10
2023-05-20T21:49:55.369Z,17.47
2023-05-20T21:52:22.450Z,18.33
2023-05-20T21:54:49.566Z,15.60
2023-05-20T21:57:16.652Z,18.40
2023-05-20T21:59:44.097Z,17.73
2023-05-20T22:02:11.608Z,16.83
2023-05-20T22:04:38.718Z,16.10
2023-05-20T22:07:05.940Z,20.70
2023-05-20T22:09:33.317Z,17.13
2023-05-20T22:12:01.247Z,15.47
2023-05-20T22:14:29.004Z,17.53
2023-05-20T22:16:56.180Z,17.90
2023-05-20T22:19:23.396Z,17.90
2023-05-20T22:21:51.186Z,16.70
2023-05-20T22:24:18.896Z,17.20
2023-05-20T22:26:46.102Z,16.53
2023-05-20T22:29:13.185Z,18.27
2023-05-20T22:31:41.154Z,18.60
2023-05-20T22:34:08.378Z,18.03
2023-05-20T22:36:36.077Z,16.10
2023-05-20T22:39:04.899Z,16.87
2023-05-20T22:41:32.030Z,17.97
2023-05-20T22:43:59.264Z,15.93
2023-05-20T22:46:26.539Z,19.73
2023-05-20T22:48:54.419Z,17.80
2023-05-20T22:51:21.915Z,18.13
2023-05-20T22:53:49.647Z,19.23
2023-05-20T22:56:16.850Z,17.33
2023-05-20T22:58:45.524Z,17.50
2023-05-20T23:01:13.142Z,21.80
2023-05-20T23:03:40.448Z,18.40
2023-05-20T23:06:07.609Z,18.17
2023-05-20T23:08:34.748Z,18.83
2023-05-20T23:11:01.856Z,20.53
2023-05-20T23:13:28.944Z,21.07
2023-05-20T23:15:56.048Z,19.03
2023-05-20T23:18:23.355Z,20.23
2023-05-20T23:20:50.463Z,17.93
2023-05-20T23:23:20.782Z,20.20
2023-05-20T23:25:55.096Z,17.30
2023-05-20T23:28:22.308Z,18.17
2023-05-20T23:30:49.414Z,19.50
2023-05-20T23:33:17.134Z,18.40
2023-05-20T23:35:44.802Z,19.87
2023-05-20T23:38:11.881Z,21.47
2023-05-20T23:40:38.982Z,20.00
2023-05-20T23:43:06.109Z,19.17
2023-05-20T23:45:33.370Z,19.03
2023-05-20T23:48:01.525Z,19.93
2023-05-20T23:50:28.653Z,19.23
2023-05-20T23:52:55.994Z,19.17
2023-05-20T23:55:23.106Z,19.87
2023-05-20T23:57:50.295Z,21.53
